createdAt,value
2023-03-12T00:01:23.109Z,36.74
2023-03-12T00:03:53.957Z,36.87
2023-03-12T00:06:22.487Z,36.90
2023-03-12T00:08:51.561Z,37.03
2023-03-12T00:11:21.010Z,37.15
2023-03-12T00:13:54.440Z,37.12
2023-03-12T00:16:23.969Z,37.13
2023-03-12T00:18:53.900Z,37.23
2023-03-12T00:21:23.666Z,37.22
2023-03-12T00:23:52.626Z,37.33
2023-03-12T00:26:22.169Z,37.28
2023-03-12T00:28:51.992Z,37.32
2023-03-12T00:31:23.999Z,37.33
2023-03-12T00:33:52.226Z,37.45
2023-03-12T00:36:22.710Z,37.47
2023-03-12T00:38:52.506Z,37.52
2023-03-12T00:41:22.365Z,37.58
2023-03-12T00:43:52.219Z,37.69
2023-03-12T00:46:21.592Z,37.75
2023-03-12T00:48:50.735Z,37.73
2023-03-12T00:51:19.615Z,37.76
2023-03-12T00:53:48.425Z,37.86
2023-03-12T00:56:16.794Z,37.92
2023-03-12T00:58:44.950Z,37.84
2023-03-12T01:03:47.080Z,38.12
2023-03-12T01:06:15.452Z,38.10
2023-03-12T01:08:44.565Z,38.15
2023-03-12T01:11:15.411Z,38.17
2023-03-12T01:13:43.712Z,38.15
2023-03-12T01:16:12.398Z,38.26
2023-03-12T01:18:41.517Z,38.26
2023-03-12T01:21:09.850Z,38.22
2023-03-12T01:23:38.213Z,38.20
2023-03-12T01:26:06.717Z,38.34
2023-03-12T01:28:35.346Z,38.29
2023-03-12T01:31:11.808Z,38.29
2023-03-12T01:33:40.467Z,38.33
2023-03-12T01:36:26.683Z,38.31
2023-03-12T01:38:57.891Z,38.34
2023-03-12T01:41:28.118Z,38.41
2023-03-12T01:43:56.410Z,38.47
2023-03-12T01:46:34.076Z,38.64
2023-03-12T01:49:10.350Z,38.61
2023-03-12T01:51:41.911Z,38.65
2023-03-12T01:54:17.178Z,38.73
2023-03-12T01:56:47.257Z,38.82
2023-03-12T01:59:25.370Z,38.84
2023-03-12T02:01:54.645Z,38.92
2023-03-12T02:04:26.353Z,38.97
2023-03-12T02:07:05.882Z,39.07
2023-03-12T02:09:38.665Z,39.23
2023-03-12T02:12:08.226Z,39.14
2023-03-12T02:14:38.069Z,39.11
2023-03-12T02:17:07.366Z,39.17
2023-03-12T02:19:49.055Z,39.15
2023-03-12T02:22:17.888Z,39.36
2023-03-12T02:24:56.610Z,39.42
2023-03-12T02:27:25.108Z,39.52
2023-03-12T02:29:53.466Z,39.59
2023-03-12T02:32:27.747Z,39.75
2023-03-12T02:34:57.179Z,39.81
2023-03-12T02:37:27.619Z,39.85
2023-03-12T02:40:21.897Z,39.91
2023-03-12T02:42:50.284Z,39.98
2023-03-12T02:45:18.808Z,39.93
2023-03-12T02:47:47.078Z,39.96
2023-03-12T02:50:18.140Z,39.95
2023-03-12T02:52:46.542Z,39.92
2023-03-12T02:55:14.857Z,39.95
2023-03-12T02:57:43.364Z,39.92
2023-03-12T03:00:13.964Z,39.97
2023-03-12T03:02:43.595Z,39.94
2023-03-12T03:05:12.810Z,39.97
2023-03-12T03:07:40.933Z,40.03
2023-03-12T03:10:10.157Z,40.09
2023-03-12T03:12:38.311Z,40.04
2023-03-12T03:15:07.888Z,40.17
2023-03-12T03:17:36.558Z,40.28
2023-03-12T03:20:06.338Z,40.30
2023-03-12T03:22:34.528Z,40.30
2023-03-12T03:25:03.128Z,40.36
2023-03-12T03:27:31.598Z,40.50
2023-03-12T03:30:00.381Z,40.63
2023-03-12T03:32:28.964Z,40.61
2023-03-12T03:34:57.341Z,40.68
2023-03-12T03:37:25.685Z,40.71
2023-03-12T03:39:53.805Z,40.74
2023-03-12T03:42:22.683Z,40.86
2023-03-12T03:44:51.046Z,40.92
2023-03-12T03:47:19.714Z,40.77
2023-03-12T03:49:48.003Z,40.85
2023-03-12T03:52:16.504Z,40.82
2023-03-12T03:54:45.082Z,40.84
2023-03-12T03:57:13.335Z,40.80
2023-03-12T03:59:41.579Z,40.95
2023-03-12T04:02:10.176Z,40.92
2023-03-12T04:04:38.656Z,40.96
2023-03-12T04:07:06.886Z,41.06
2023-03-12T04:09:35.428Z,40.96
2023-03-12T04:12:03.796Z,41.01
2023-03-12T04:14:32.048Z,40.94
2023-03-12T04:17:00.268Z,41.03
2023-03-12T04:19:28.404Z,41.06
2023-03-12T04:21:56.608Z,41.17
2023-03-12T04:24:25.353Z,41.01
2023-03-12T04:26:53.454Z,41.18
2023-03-12T04:29:21.662Z,41.22
2023-03-12T04:31:50.014Z,41.23
2023-03-12T04:34:18.359Z,41.30
2023-03-12T04:36:47.060Z,41.42
2023-03-12T04:39:21.833Z,41.36
2023-03-12T04:41:50.028Z,41.50
2023-03-12T04:44:18.377Z,41.48
2023-03-12T04:46:46.764Z,41.56
2023-03-12T04:49:14.944Z,41.42
2023-03-12T04:51:43.325Z,41.49
2023-03-12T04:54:12.348Z,41.53
2023-03-12T04:56:40.751Z,41.56
2023-03-12T04:59:09.457Z,41.56
2023-03-12T05:01:38.047Z,41.73
2023-03-12T05:04:07.247Z,41.67
2023-03-12T05:06:36.131Z,41.80
2023-03-12T05:09:04.374Z,41.77
2023-03-12T05:11:33.422Z,41.82
2023-03-12T05:14:01.591Z,41.81
2023-03-12T05:16:30.690Z,41.86
2023-03-12T05:18:59.182Z,42.00
2023-03-12T05:21:27.315Z,41.95
2023-03-12T05:23:56.101Z,42.05
2023-03-12T05:26:32.695Z,42.10
2023-03-12T05:29:02.690Z,42.16
2023-03-12T05:31:32.237Z,42.27
2023-03-12T05:34:01.263Z,42.35
2023-03-12T05:36:29.769Z,42.26
2023-03-12T05:38:57.892Z,42.52
2023-03-12T05:41:28.692Z,42.59
2023-03-12T05:43:58.288Z,42.47
2023-03-12T05:46:28.481Z,42.69
2023-03-12T05:48:56.675Z,42.79
2023-03-12T05:51:26.454Z,42.94
2023-03-12T05:53:54.918Z,42.84
2023-03-12T05:56:23.235Z,42.93
2023-03-12T05:58:51.525Z,42.94
2023-03-12T06:01:26.569Z,42.99
2023-03-12T06:03:55.763Z,42.95
2023-03-12T06:06:24.145Z,43.04
2023-03-12T06:08:52.904Z,42.98
2023-03-12T06:11:21.663Z,43.13
2023-03-12T06:13:49.794Z,43.24
2023-03-12T06:16:21.608Z,43.23
2023-03-12T06:18:54.026Z,43.34
2023-03-12T06:21:24.880Z,43.47
2023-03-12T06:23:53.264Z,43.43
2023-03-12T06:26:22.555Z,43.47
2023-03-12T06:28:51.885Z,43.39
2023-03-12T06:31:21.544Z,43.41
2023-03-12T06:33:50.144Z,43.44
2023-03-12T06:36:18.953Z,43.45
2023-03-12T06:38:47.109Z,43.57
2023-03-12T06:41:17.805Z,43.46
2023-03-12T06:43:47.093Z,43.43
2023-03-12T06:46:18.246Z,43.29
2023-03-12T06:48:47.705Z,43.20
2023-03-12T06:51:17.331Z,43.06
2023-03-12T06:53:46.416Z,42.75
2023-03-12T06:56:15.690Z,42.26
2023-03-12T06:58:44.981Z,41.48
2023-03-12T07:01:13.199Z,40.70
2023-03-12T07:03:41.349Z,39.11
2023-03-12T07:06:15.266Z,37.36
2023-03-12T07:08:44.065Z,35.79
2023-03-12T07:11:13.881Z,34.50
2023-03-12T07:13:42.458Z,33.66
2023-03-12T07:16:11.434Z,33.41
2023-03-12T07:18:39.815Z,32.21
2023-03-12T07:21:08.005Z,31.05
2023-03-12T07:23:36.470Z,29.56
2023-03-12T07:26:06.522Z,28.45
2023-03-12T07:28:34.742Z,27.25
2023-03-12T07:31:04.959Z,26.07
2023-03-12T07:33:33.746Z,24.96
2023-03-12T07:36:02.354Z,23.80
2023-03-12T07:38:31.164Z,23.24
2023-03-12T07:40:59.500Z,22.58
2023-03-12T07:43:27.814Z,21.72
2023-03-12T07:45:57.311Z,22.34
2023-03-12T07:48:25.672Z,21.79
2023-03-12T07:50:53.956Z,21.46
2023-03-12T07:53:22.348Z,20.87
2023-03-12T07:55:50.571Z,20.24
2023-03-12T07:58:19.009Z,19.43
2023-03-12T08:00:47.860Z,18.77
2023-03-12T08:03:16.462Z,17.66
2023-03-12T08:05:45.479Z,17.09
2023-03-12T08:08:14.103Z,16.52
2023-03-12T08:10:42.300Z,15.98
2023-03-12T08:13:10.630Z,15.63
2023-03-12T08:15:39.120Z,15.24
2023-03-12T08:18:07.223Z,15.14
2023-03-12T08:20:35.431Z,15.19
2023-03-12T08:23:03.862Z,15.06
2023-03-12T08:25:32.720Z,15.02
2023-03-12T08:28:00.954Z,14.89
2023-03-12T08:30:30.437Z,14.53
2023-03-12T08:32:58.796Z,14.16
2023-03-12T08:35:27.423Z,13.84
2023-03-12T08:37:55.780Z,14.02
2023-03-12T08:40:24.817Z,13.87
2023-03-12T08:42:53.299Z,13.61
2023-03-12T08:45:21.866Z,13.60
2023-03-12T08:47:50.194Z,13.30
2023-03-12T08:50:18.785Z,13.22
2023-03-12T08:52:48.724Z,13.26
2023-03-12T08:55:17.007Z,13.24
2023-03-12T08:57:45.107Z,13.63
2023-03-12T09:00:14.707Z,14.19
2023-03-12T09:02:47.312Z,14.94
2023-03-12T09:05:16.019Z,15.51
2023-03-12T09:07:44.068Z,16.27
2023-03-12T09:10:12.241Z,16.87
2023-03-12T09:12:40.708Z,17.57
2023-03-12T09:15:09.679Z,18.03
2023-03-12T09:17:38.796Z,18.58
2023-03-12T09:20:09.459Z,19.02
2023-03-12T09:22:37.620Z,19.50
2023-03-12T09:25:07.001Z,19.79
2023-03-12T09:27:40.809Z,20.28
2023-03-12T09:30:14.401Z,20.94
2023-03-12T09:32:43.744Z,21.80
2023-03-12T09:35:14.342Z,22.01
2023-03-12T09:37:44.085Z,22.31
2023-03-12T09:40:18.715Z,22.53
2023-03-12T09:42:53.929Z,23.00
2023-03-12T09:45:26.203Z,23.12
2023-03-12T09:48:01.073Z,23.75
2023-03-12T09:50:38.202Z,24.40
2023-03-12T09:53:18.919Z,24.78
2023-03-12T09:55:54.403Z,25.34
2023-03-12T09:58:28.468Z,25.35
2023-03-12T10:01:49.639Z,25.13
2023-03-12T10:04:48.748Z,25.38
2023-03-12T10:07:33.014Z,25.28
2023-03-12T10:10:24.187Z,25.28
2023-03-12T10:13:24.808Z,25.41
2023-03-12T10:16:07.435Z,25.70
2023-03-12T10:18:57.647Z,25.80
2023-03-12T10:21:33.714Z,25.82
2023-03-12T10:24:20.418Z,25.82
2023-03-12T10:26:55.402Z,26.05
2023-03-12T10:29:31.133Z,26.09
2023-03-12T10:32:16.986Z,26.26
2023-03-12T10:34:56.409Z,26.16
2023-03-12T10:37:40.277Z,25.96
2023-03-12T10:40:16.358Z,25.81
2023-03-12T10:42:44.922Z,25.94
2023-03-12T10:45:41.238Z,25.71
2023-03-12T10:48:17.648Z,25.70
2023-03-12T10:51:05.767Z,25.61
2023-03-12T10:53:39.400Z,25.59
2023-03-12T10:56:11.892Z,25.50
2023-03-12T10:58:49.530Z,25.26
2023-03-12T11:01:26.709Z,25.23
2023-03-12T11:04:18.660Z,25.10
2023-03-12T11:07:18.747Z,25.29
2023-03-12T11:10:23.293Z,25.11
2023-03-12T11:12:57.291Z,25.37
2023-03-12T11:15:27.819Z,25.21
2023-03-12T11:18:21.348Z,25.14
2023-03-12T11:20:52.282Z,25.26
2023-03-12T11:23:31.166Z,25.09
2023-03-12T11:26:05.730Z,24.74
2023-03-12T11:28:40.760Z,24.78
2023-03-12T11:31:22.121Z,24.75
2023-03-12T11:33:54.153Z,25.11
2023-03-12T11:36:40.188Z,25.24
2023-03-12T11:39:14.460Z,25.03
2023-03-12T11:42:21.249Z,24.80
2023-03-12T11:45:04.503Z,24.88
2023-03-12T11:47:54.596Z,24.95
2023-03-12T11:51:02.166Z,24.94
2023-03-12T11:54:15.982Z,25.15
2023-03-12T11:56:53.736Z,25.16
2023-03-12T11:59:26.300Z,25.18
2023-03-12T12:02:23.024Z,25.06
2023-03-12T12:05:14.003Z,25.05
2023-03-12T12:08:19.997Z,25.06
2023-03-12T12:11:00.556Z,25.36
2023-03-12T12:13:41.383Z,25.33
2023-03-12T12:16:25.112Z,25.31
2023-03-12T12:19:20.502Z,25.23
2023-03-12T12:22:17.584Z,25.10
2023-03-12T12:25:17.109Z,25.51
2023-03-12T12:27:54.525Z,25.98
2023-03-12T12:30:31.404Z,26.14
2023-03-12T12:33:39.823Z,26.39
2023-03-12T12:36:11.603Z,26.43
2023-03-12T12:38:55.655Z,26.77
2023-03-12T12:41:31.826Z,26.57
2023-03-12T12:44:05.594Z,26.59
2023-03-12T12:46:40.239Z,26.62
2023-03-12T12:49:14.326Z,27.05
2023-03-12T12:51:48.839Z,27.04
2023-03-12T12:54:43.624Z,26.80
2023-03-12T12:57:18.428Z,26.87
2023-03-12T13:00:03.213Z,26.81
2023-03-12T13:02:33.238Z,26.46
2023-03-12T13:05:01.946Z,26.59
2023-03-12T13:07:33.388Z,26.55
2023-03-12T13:10:07.496Z,26.37
2023-03-12T13:12:55.442Z,26.26
2023-03-12T13:15:35.156Z,26.15
2023-03-12T13:18:28.992Z,25.74
2023-03-12T13:21:12.481Z,25.67
2023-03-12T13:23:49.735Z,25.59
2023-03-12T13:26:20.861Z,25.68
2023-03-12T13:29:11.905Z,25.48
2023-03-12T13:31:42.846Z,25.55
2023-03-12T13:34:23.068Z,25.49
2023-03-12T13:36:53.082Z,25.58
2023-03-12T13:39:36.168Z,25.51
2023-03-12T13:42:36.328Z,25.51
2023-03-12T13:45:28.885Z,25.30
2023-03-12T13:48:00.932Z,25.50
2023-03-12T13:50:31.490Z,25.36
2023-03-12T13:53:07.254Z,25.41
2023-03-12T13:55:38.364Z,25.58
2023-03-12T13:58:16.797Z,25.30
2023-03-12T14:01:01.763Z,25.32
2023-03-12T14:03:33.957Z,25.27
2023-03-12T14:06:05.446Z,25.54
2023-03-12T14:09:00.910Z,25.91
2023-03-12T14:11:40.745Z,26.28
2023-03-12T14:14:38.252Z,26.60
2023-03-12T14:17:14.366Z,26.61
2023-03-12T14:19:47.938Z,26.60
2023-03-12T14:22:18.595Z,26.67
2023-03-12T14:25:01.472Z,26.69
2023-03-12T14:27:34.001Z,26.96
2023-03-12T14:30:20.339Z,26.86
2023-03-12T14:32:53.112Z,26.79
2023-03-12T14:35:58.532Z,26.96
2023-03-12T14:38:36.517Z,26.90
2023-03-12T14:41:30.094Z,27.20
2023-03-12T14:44:06.358Z,27.49
2023-03-12T14:46:34.658Z,27.48
2023-03-12T14:49:03.257Z,27.71
2023-03-12T14:51:36.213Z,27.76
2023-03-12T14:54:04.825Z,27.82
2023-03-12T14:56:34.457Z,27.68
2023-03-12T14:59:26.465Z,27.94
2023-03-12T15:02:18.030Z,27.95
2023-03-12T15:04:49.012Z,28.03
2023-03-12T15:07:24.861Z,28.46
2023-03-12T15:09:53.986Z,28.93
2023-03-12T15:12:25.483Z,29.02
2023-03-12T15:15:02.154Z,29.10
2023-03-12T15:17:32.376Z,29.93
2023-03-12T15:20:05.803Z,30.33
2023-03-12T15:22:35.030Z,30.63
2023-03-12T15:25:27.200Z,30.96
2023-03-12T15:28:14.996Z,31.51
2023-03-12T15:30:44.377Z,31.40
2023-03-12T15:33:23.278Z,31.53
2023-03-12T15:36:15.918Z,31.71
2023-03-12T15:38:50.770Z,31.85
2023-03-12T15:41:23.457Z,31.84
2023-03-12T15:43:55.809Z,31.92
2023-03-12T15:46:26.299Z,31.90
2023-03-12T15:49:00.515Z,31.83
2023-03-12T15:51:35.764Z,32.18
2023-03-12T15:54:27.800Z,32.53
2023-03-12T15:57:18.328Z,32.78
2023-03-12T16:00:16.715Z,32.88
2023-03-12T16:02:55.301Z,32.84
2023-03-12T16:05:27.611Z,32.64
2023-03-12T16:07:56.671Z,32.65
2023-03-12T16:10:26.721Z,32.58
2023-03-12T16:13:02.963Z,32.87
2023-03-12T16:15:36.433Z,32.97
2023-03-12T16:18:05.808Z,32.96
2023-03-12T16:20:34.031Z,33.11
2023-03-12T16:23:02.260Z,33.44
2023-03-12T16:25:30.802Z,33.76
2023-03-12T16:28:02.592Z,34.02
2023-03-12T16:30:36.680Z,34.18
2023-03-12T16:33:09.152Z,34.43
2023-03-12T16:35:38.054Z,34.66
2023-03-12T16:38:06.252Z,35.11
2023-03-12T16:40:37.269Z,35.38
2023-03-12T16:43:13.882Z,35.50
2023-03-12T16:45:44.879Z,35.76
2023-03-12T16:48:17.798Z,36.05
2023-03-12T16:50:48.859Z,35.99
2023-03-12T16:53:18.937Z,36.17
2023-03-12T16:55:55.251Z,36.44
2023-03-12T16:58:25.086Z,36.44
2023-03-12T17:00:54.999Z,36.67
2023-03-12T17:03:37.391Z,37.18
2023-03-12T17:06:08.461Z,37.66
2023-03-12T17:08:36.687Z,38.06
2023-03-12T17:11:16.897Z,38.61
2023-03-12T17:13:47.572Z,38.93
2023-03-12T17:16:15.708Z,39.12
2023-03-12T17:18:44.107Z,39.46
2023-03-12T17:21:17.695Z,39.84
2023-03-12T17:23:47.893Z,40.06
2023-03-12T17:26:17.604Z,40.36
2023-03-12T17:28:45.987Z,40.50
2023-03-12T17:31:14.219Z,40.73
2023-03-12T17:33:42.784Z,40.97
2023-03-12T17:36:11.688Z,41.20
2023-03-12T17:38:40.081Z,41.24
2023-03-12T17:41:19.842Z,41.46
2023-03-12T17:43:55.095Z,41.73
2023-03-12T17:46:23.510Z,41.68
2023-03-12T17:48:52.850Z,41.88
2023-03-12T17:51:21.116Z,42.20
2023-03-12T17:53:50.055Z,42.61
2023-03-12T17:56:18.219Z,42.76
2023-03-12T17:58:47.124Z,42.98
2023-03-12T18:01:16.513Z,43.25
2023-03-12T18:03:45.269Z,43.53
2023-03-12T18:06:13.591Z,43.74
2023-03-12T18:08:41.874Z,43.80
2023-03-12T18:11:10.042Z,43.95
2023-03-12T18:13:40.758Z,44.07
2023-03-12T18:16:10.170Z,44.21
2023-03-12T18:18:38.984Z,44.46
2023-03-12T18:21:07.210Z,44.61
2023-03-12T18:23:35.440Z,44.55
2023-03-12T18:26:04.826Z,44.80
2023-03-12T18:28:33.040Z,44.72
2023-03-12T18:31:01.578Z,44.81
2023-03-12T18:33:30.828Z,45.19
2023-03-12T18:35:58.977Z,45.40
2023-03-12T18:38:27.790Z,45.32
2023-03-12T18:41:09.735Z,45.45
2023-03-12T18:43:39.113Z,45.50
2023-03-12T18:46:09.000Z,45.73
2023-03-12T18:48:37.472Z,46.23
2023-03-12T18:51:05.981Z,46.44
2023-03-12T18:53:34.108Z,46.70
2023-03-12T18:56:02.264Z,46.76
2023-03-12T18:58:30.424Z,46.80
2023-03-12T19:00:59.636Z,46.78
2023-03-12T19:03:28.124Z,46.96
2023-03-12T19:06:06.732Z,47.07
2023-03-12T19:08:35.688Z,47.21
2023-03-12T19:11:06.309Z,47.38
2023-03-12T19:13:34.970Z,47.59
2023-03-12T19:16:06.301Z,47.70
2023-03-12T19:18:35.381Z,47.87
2023-03-12T19:21:04.578Z,47.96
2023-03-12T19:23:32.665Z,48.11
2023-03-12T19:26:01.057Z,48.17
2023-03-12T19:28:29.843Z,48.25
2023-03-12T19:31:03.417Z,48.50
2023-03-12T19:33:32.344Z,48.54
2023-03-12T19:36:00.630Z,48.52
2023-03-12T19:38:29.963Z,48.69
2023-03-12T19:40:59.609Z,48.60
2023-03-12T19:43:27.813Z,48.73
2023-03-12T19:45:56.958Z,48.66
2023-03-12T19:48:25.200Z,48.78
2023-03-12T19:50:53.773Z,48.91
2023-03-12T19:53:22.998Z,49.01
2023-03-12T19:55:52.206Z,49.02
2023-03-12T19:58:21.703Z,49.04
2023-03-12T20:00:51.327Z,49.10
2023-03-12T20:03:19.604Z,49.08
2023-03-12T20:05:47.885Z,49.05
2023-03-12T20:08:16.137Z,49.10
2023-03-12T20:10:45.418Z,49.09
2023-03-12T20:13:14.219Z,48.91
2023-03-12T20:15:42.339Z,48.86
2023-03-12T20:18:10.978Z,48.80
2023-03-12T20:20:39.136Z,48.82
2023-03-12T20:23:07.346Z,48.78
2023-03-12T20:25:39.680Z,48.83
2023-03-12T20:28:11.181Z,48.70
2023-03-12T20:30:39.916Z,48.75
2023-03-12T20:33:09.056Z,48.81
2023-03-12T20:35:37.906Z,48.76
2023-03-12T20:38:06.093Z,48.73
2023-03-12T20:40:34.755Z,48.62
2023-03-12T20:43:03.676Z,48.67
2023-03-12T20:45:33.786Z,48.79
2023-03-12T20:48:02.165Z,48.81
2023-03-12T20:50:30.338Z,48.82
2023-03-12T20:52:58.514Z,48.72
2023-03-12T20:55:27.211Z,48.64
2023-03-12T20:57:55.506Z,48.91
2023-03-12T21:00:23.707Z,48.95
2023-03-12T21:02:52.085Z,48.97
2023-03-12T21:05:22.151Z,48.91
2023-03-12T21:07:52.505Z,48.95
2023-03-12T21:10:21.348Z,48.97
2023-03-12T21:12:49.470Z,49.05
2023-03-12T21:15:18.095Z,48.90
2023-03-12T21:17:46.236Z,49.04
2023-03-12T21:20:15.262Z,49.09
2023-03-12T21:22:44.315Z,49.10
2023-03-12T21:25:12.946Z,49.17
2023-03-12T21:27:50.618Z,49.23
2023-03-12T21:30:19.872Z,49.35
2023-03-12T21:32:48.213Z,49.47
2023-03-12T21:35:16.763Z,49.45
2023-03-12T21:37:45.008Z,49.39
2023-03-12T21:40:14.600Z,49.42
2023-03-12T21:42:43.124Z,49.33
2023-03-12T21:45:13.795Z,49.24
2023-03-12T21:47:41.901Z,49.33
2023-03-12T21:50:11.092Z,49.39
2023-03-12T21:52:43.091Z,49.46
2023-03-12T21:55:11.726Z,49.59
2023-03-12T21:57:40.261Z,49.62
2023-03-12T22:00:11.463Z,49.88
2023-03-12T22:02:45.006Z,49.90
2023-03-12T22:05:13.338Z,49.93
2023-03-12T22:07:41.401Z,50.05
2023-03-12T22:10:10.694Z,50.35
2023-03-12T22:12:39.989Z,50.45
2023-03-12T22:15:08.969Z,50.61
2023-03-12T22:17:37.492Z,50.72
2023-03-12T22:20:06.082Z,50.97
2023-03-12T22:22:34.250Z,50.96
2023-03-12T22:25:02.985Z,51.11
2023-03-12T22:27:31.233Z,51.12
2023-03-12T22:29:59.803Z,51.27
2023-03-12T22:32:28.665Z,51.30
2023-03-12T22:34:57.063Z,51.32
2023-03-12T22:37:25.171Z,51.33
2023-03-12T22:39:54.063Z,51.28
2023-03-12T22:42:22.450Z,51.37
2023-03-12T22:44:51.039Z,51.27
2023-03-12T22:47:19.217Z,51.17
2023-03-12T22:49:47.556Z,51.34
2023-03-12T22:52:16.141Z,51.27
2023-03-12T22:54:44.307Z,51.36
2023-03-12T22:57:12.464Z,51.41
2023-03-12T22:59:40.543Z,51.63
2023-03-12T23:02:09.058Z,51.70
2023-03-12T23:04:37.358Z,51.92
2023-03-12T23:07:13.991Z,52.05
2023-03-12T23:09:43.917Z,52.30
2023-03-12T23:12:11.995Z,52.26
2023-03-12T23:14:40.110Z,52.31
2023-03-12T23:17:09.565Z,52.42
2023-03-12T23:19:37.852Z,52.36
2023-03-12T23:22:06.989Z,52.59
2023-03-12T23:24:35.736Z,52.63
2023-03-12T23:27:04.336Z,52.62
2023-03-12T23:29:33.956Z,52.67
2023-03-12T23:32:02.612Z,52.79
2023-03-12T23:34:30.769Z,52.97
2023-03-12T23:36:59.023Z,52.93
2023-03-12T23:39:29.663Z,52.97
2023-03-12T23:41:58.055Z,52.97
2023-03-12T23:44:26.625Z,52.92
2023-03-12T23:46:55.016Z,53.19
2023-03-12T23:49:23.075Z,53.28
2023-03-12T23:51:51.249Z,53.25
2023-03-12T23:54:19.450Z,53.35
2023-03-12T23:56:47.552Z,53.47
2023-03-12T23:59:15.891Z,53.55
